createdAt,value
2022-08-19T00:02:00.107Z,95245.66
2022-08-19T00:04:31.295Z,95242.59
2022-08-19T00:07:00.719Z,95239.06
2022-08-19T00:09:30.268Z,95216.69
2022-08-19T00:12:00.881Z,95216.69
2022-08-19T00:14:32.990Z,95225.38
2022-08-19T00:17:02.413Z,95234.72
2022-08-19T00:19:31.356Z,95229.72
2022-08-19T00:22:00.352Z,95220.03
2022-08-19T00:24:29.841Z,95216.75
2022-08-19T00:27:25.143Z,95207.63
2022-08-19T00:29:52.320Z,95215.00
2022-08-19T00:32:21.428Z,95159.41
2022-08-19T00:34:50.093Z,95195.75
2022-08-19T00:37:19.266Z,95195.31
2022-08-19T00:39:49.267Z,95174.78
2022-08-19T00:42:18.189Z,95199.84
2022-08-19T00:44:46.842Z,95204.84
2022-08-19T00:47:17.410Z,95203.72
2022-08-19T00:49:52.402Z,95202.91
2022-08-19T00:52:25.266Z,95052.50
2022-08-19T00:54:55.208Z,95175.69
2022-08-19T00:57:29.025Z,95200.53
2022-08-19T01:00:03.138Z,95025.91
2022-08-19T01:02:34.768Z,95193.00
2022-08-19T01:05:07.001Z,95196.88
2022-08-19T01:07:38.270Z,95117.94
2022-08-19T01:10:10.104Z,95176.16
2022-08-19T01:12:39.265Z,95036.53
2022-08-19T01:15:10.569Z,95189.94
2022-08-19T01:17:42.873Z,95190.72
2022-08-19T01:20:15.621Z,95120.13
2022-08-19T01:22:47.986Z,95164.75
2022-08-19T01:25:18.634Z,95177.50
2022-08-19T01:27:52.119Z,95140.81
2022-08-19T01:30:24.917Z,95160.78
2022-08-19T01:32:54.603Z,95175.25
2022-08-19T01:35:24.988Z,95176.81
2022-08-19T01:37:57.733Z,95175.69
2022-08-19T01:40:29.005Z,95199.94
2022-08-19T01:42:57.589Z,95194.13
2022-08-19T01:45:28.988Z,95194.25
2022-08-19T01:48:01.833Z,95186.59
2022-08-19T01:50:31.327Z,95180.47
2022-08-19T01:53:06.597Z,95179.09
2022-08-19T01:55:40.608Z,95172.50
2022-08-19T01:58:13.307Z,95168.59
2022-08-19T02:00:42.011Z,95157.13
2022-08-19T02:03:12.470Z,95157.94
2022-08-19T02:05:41.945Z,95149.28
2022-08-19T02:08:13.448Z,95146.75
2022-08-19T02:10:43.594Z,95156.31
2022-08-19T02:13:13.154Z,95144.72
2022-08-19T02:15:41.671Z,95146.31
2022-08-19T02:18:11.858Z,95123.88
2022-08-19T02:20:42.559Z,95163.41
2022-08-19T02:23:16.174Z,95157.13
2022-08-19T02:25:45.516Z,95147.38
2022-08-19T02:28:18.304Z,95152.81
2022-08-19T02:30:48.994Z,95137.22
2022-08-19T02:33:18.460Z,95146.09
2022-08-19T02:35:47.505Z,95118.41
2022-08-19T02:38:28.322Z,95064.50
2022-08-19T02:40:59.802Z,95107.56
2022-08-19T02:43:29.284Z,95112.81
2022-08-19T02:46:02.265Z,95148.81
2022-08-19T02:48:31.206Z,95099.78
2022-08-19T02:51:00.606Z,95161.44
2022-08-19T02:53:31.021Z,95149.59
2022-08-19T02:55:59.910Z,95158.94
2022-08-19T02:58:29.637Z,95154.28
2022-08-19T03:00:59.926Z,95160.41
2022-08-19T03:03:29.059Z,95160.75
2022-08-19T03:06:09.490Z,95141.28
2022-08-19T03:08:40.074Z,95173.59
2022-08-19T03:11:09.688Z,95179.72
2022-08-19T03:13:38.241Z,95185.88
2022-08-19T03:16:07.764Z,95190.19
2022-08-19T03:18:36.283Z,95182.81
2022-08-19T03:21:05.684Z,95195.22
2022-08-19T03:23:34.474Z,95193.72
2022-08-19T03:26:16.125Z,95203.84
2022-08-19T03:28:50.976Z,95198.41
2022-08-19T03:31:43.730Z,95202.25
2022-08-19T03:34:14.245Z,95000.72
2022-08-19T03:36:43.448Z,95221.34
2022-08-19T03:39:12.984Z,95220.22
2022-08-19T03:41:46.491Z,95219.56
2022-08-19T03:44:19.258Z,95222.75
2022-08-19T03:46:49.382Z,95223.91
2022-08-19T03:49:18.717Z,95224.56
2022-08-19T03:51:49.652Z,95233.88
2022-08-19T03:54:21.186Z,95225.69
2022-08-19T03:56:52.605Z,95232.75
2022-08-19T03:59:27.104Z,95175.56
2022-08-19T04:01:57.609Z,95239.81
2022-08-19T04:04:29.218Z,95234.81
2022-08-19T04:06:58.756Z,95228.22
2022-08-19T04:09:28.586Z,95224.66
2022-08-19T04:12:00.076Z,95223.41
2022-08-19T04:14:31.419Z,95219.78
2022-08-19T04:17:00.784Z,95034.69
2022-08-19T04:19:32.470Z,95212.69
2022-08-19T04:22:01.285Z,95221.59
2022-08-19T04:24:29.886Z,95219.97
2022-08-19T04:27:01.349Z,95217.72
2022-08-19T04:29:30.656Z,95217.72
2022-08-19T04:32:00.147Z,95219.53
2022-08-19T04:35:02.779Z,95200.59
2022-08-19T04:37:27.482Z,94925.38
2022-08-19T04:40:20.733Z,95218.81
2022-08-19T04:42:50.697Z,95224.25
2022-08-19T04:45:19.387Z,95224.72
2022-08-19T04:47:58.675Z,95195.00
2022-08-19T04:50:43.881Z,95151.88
2022-08-19T04:53:13.065Z,95219.88
2022-08-19T04:55:43.725Z,95222.25
2022-08-19T04:58:13.672Z,95211.06
2022-08-19T05:00:42.984Z,95220.66
2022-08-19T05:03:11.626Z,95190.38
2022-08-19T05:05:45.057Z,95213.59
2022-08-19T05:08:15.211Z,95212.81
2022-08-19T05:10:43.933Z,95215.09
2022-08-19T05:13:14.011Z,95215.41
2022-08-19T05:15:42.678Z,95206.03
2022-08-19T05:18:31.257Z,95192.72
2022-08-19T05:21:16.732Z,95238.97
2022-08-19T05:23:45.849Z,95223.59
2022-08-19T05:26:14.980Z,95229.31
2022-08-19T05:28:45.130Z,95207.09
2022-08-19T05:31:14.393Z,95215.09
2022-08-19T05:33:42.813Z,95209.50
2022-08-19T05:36:12.212Z,95213.56
2022-08-19T05:38:40.794Z,95228.59
2022-08-19T05:41:10.474Z,95238.38
2022-08-19T05:43:40.006Z,95217.31
2022-08-19T05:46:11.521Z,95205.97
2022-08-19T05:48:40.568Z,95241.72
2022-08-19T05:51:10.305Z,95255.81
2022-08-19T05:53:39.200Z,95256.47
2022-08-19T05:56:08.681Z,95258.88
2022-08-19T05:58:37.861Z,95261.28
2022-08-19T06:01:11.952Z,95257.75
2022-08-19T06:03:41.860Z,95260.47
2022-08-19T06:06:12.167Z,95270.13
2022-08-19T06:08:41.818Z,95230.81
2022-08-19T06:11:20.401Z,95267.03
2022-08-19T06:13:52.173Z,95286.50
2022-08-19T06:16:29.002Z,95278.19
2022-08-19T06:19:01.686Z,95280.47
2022-08-19T06:21:32.084Z,95280.19
2022-08-19T06:24:01.481Z,95298.41
2022-08-19T06:26:30.013Z,95309.34
2022-08-19T06:28:58.510Z,95312.28
2022-08-19T06:31:28.918Z,95311.63
2022-08-19T06:33:59.420Z,95314.78
2022-08-19T06:36:32.448Z,95316.25
2022-08-19T06:39:02.144Z,95312.03
2022-08-19T06:41:31.624Z,95259.78
2022-08-19T06:44:00.300Z,95333.44
2022-08-19T06:46:29.098Z,95343.56
2022-08-19T06:48:59.266Z,95309.84
2022-08-19T06:54:00.588Z,95335.06
2022-08-19T06:56:34.804Z,95345.16
2022-08-19T06:59:04.721Z,95346.63
2022-08-19T07:01:36.145Z,95300.25
2022-08-19T07:04:07.009Z,95348.22
2022-08-19T07:06:43.440Z,95344.22
2022-08-19T07:09:18.381Z,95352.09
2022-08-19T07:11:49.249Z,95349.81
2022-08-19T07:14:20.355Z,95345.03
2022-08-19T07:16:50.833Z,95345.69
2022-08-19T07:19:22.244Z,95325.34
2022-08-19T07:21:53.953Z,95314.16
2022-08-19T07:24:24.949Z,95334.50
2022-08-19T07:26:55.517Z,95337.41
2022-08-19T07:29:25.818Z,95351.69
2022-08-19T07:32:00.195Z,95344.97
2022-08-19T07:34:35.636Z,95356.03
2022-08-19T07:37:05.077Z,95330.47
2022-08-19T07:39:36.334Z,95350.59
2022-08-19T07:42:08.871Z,95359.88
2022-08-19T07:47:47.192Z,95343.97
2022-08-19T07:50:01.673Z,95346.84
2022-08-19T07:52:30.510Z,95366.22
2022-08-19T07:55:01.118Z,95374.38
2022-08-19T07:57:30.788Z,95372.78
2022-08-19T07:59:59.341Z,95335.75
2022-08-19T08:02:28.249Z,95388.50
2022-08-19T08:05:28.457Z,95391.88
2022-08-19T08:08:15.942Z,95350.78
2022-08-19T08:10:44.429Z,95369.94
2022-08-19T08:13:21.731Z,95384.00
2022-08-19T08:15:52.243Z,95389.13
2022-08-19T08:18:23.620Z,95370.41
2022-08-19T08:20:59.277Z,95391.16
2022-08-19T08:23:31.391Z,95392.94
2022-08-19T08:26:00.961Z,95390.19
2022-08-19T08:28:30.795Z,95381.06
2022-08-19T08:31:00.881Z,95391.50
2022-08-19T08:33:34.026Z,95395.47
2022-08-19T08:36:04.331Z,95398.88
2022-08-19T08:38:39.662Z,95405.75
2022-08-19T08:41:20.606Z,95411.06
2022-08-19T08:43:53.208Z,95411.28
2022-08-19T08:46:31.371Z,95411.63
2022-08-19T08:49:09.987Z,95419.66
2022-08-19T08:51:44.734Z,95424.31
2022-08-19T08:54:22.101Z,95436.69
2022-08-19T08:56:54.930Z,95433.34
2022-08-19T08:59:27.326Z,95435.91
2022-08-19T09:01:55.967Z,95435.47
2022-08-19T09:04:24.861Z,95430.66
2022-08-19T09:06:58.659Z,95427.94
2022-08-19T09:09:33.697Z,95434.50
2022-08-19T09:12:11.974Z,95427.59
2022-08-19T09:14:51.737Z,95415.88
2022-08-19T09:17:29.301Z,95409.03
2022-08-19T09:20:02.080Z,95407.88
2022-08-19T09:22:30.884Z,95414.94
2022-08-19T09:25:00.886Z,95403.03
2022-08-19T09:27:42.539Z,95415.06
2022-08-19T09:30:15.921Z,95404.03
2022-08-19T09:32:45.324Z,95370.31
2022-08-19T09:35:16.905Z,95386.13
2022-08-19T09:37:46.025Z,95384.34
2022-08-19T09:40:16.674Z,95411.06
2022-08-19T09:42:50.379Z,95409.50
2022-08-19T09:45:23.468Z,95412.69
2022-08-19T09:47:54.800Z,95409.28
2022-08-19T09:50:25.489Z,95402.84
2022-08-19T09:52:58.095Z,95381.25
2022-08-19T09:55:32.062Z,95398.19
2022-08-19T09:58:02.642Z,95395.94
2022-08-19T10:00:32.459Z,95396.06
2022-08-19T10:03:01.226Z,95388.75
2022-08-19T10:05:48.690Z,95392.38
2022-08-19T10:08:20.647Z,95401.16
2022-08-19T10:10:51.766Z,95398.25
2022-08-19T10:13:26.905Z,95402.41
2022-08-19T10:15:58.123Z,95404.28
2022-08-19T10:18:28.190Z,95401.50
2022-08-19T10:21:08.757Z,95397.91
2022-08-19T10:23:38.825Z,95397.50
2022-08-19T10:26:10.005Z,95409.63
2022-08-19T10:28:39.589Z,95403.91
2022-08-19T10:31:14.244Z,95404.22
2022-08-19T10:33:54.013Z,95403.25
2022-08-19T10:36:26.139Z,95366.88
2022-08-19T10:38:58.592Z,95388.31
2022-08-19T10:41:31.098Z,95393.72
2022-08-19T10:44:04.146Z,95393.50
2022-08-19T10:46:34.404Z,95396.81
2022-08-19T10:49:04.233Z,95410.25
2022-08-19T10:51:50.257Z,95420.34
2022-08-19T10:54:31.116Z,95411.19
2022-08-19T10:57:03.104Z,95415.47
2022-08-19T10:59:35.982Z,95346.09
2022-08-19T11:02:06.974Z,95415.28
2022-08-19T11:04:36.003Z,95418.75
2022-08-19T11:07:06.036Z,95390.66
2022-08-19T11:09:40.764Z,95408.72
2022-08-19T11:12:13.875Z,95412.00
2022-08-19T11:14:42.465Z,95421.38
2022-08-19T11:17:12.392Z,95400.72
2022-08-19T11:19:40.859Z,95419.91
2022-08-19T11:22:10.554Z,95417.38
2022-08-19T11:24:45.482Z,95425.81
2022-08-19T11:27:15.457Z,95419.22
2022-08-19T11:29:43.888Z,95421.72
2022-08-19T11:32:14.366Z,95425.25
2022-08-19T11:34:43.355Z,95429.25
2022-08-19T11:37:12.073Z,95427.63
2022-08-19T11:39:41.196Z,95420.59
2022-08-19T11:42:24.039Z,95429.25
2022-08-19T11:44:54.313Z,95433.47
2022-08-19T11:47:23.176Z,95430.72
2022-08-19T11:49:52.374Z,95419.09
2022-08-19T11:52:20.873Z,95411.81
2022-08-19T11:54:50.122Z,95412.38
2022-08-19T11:57:19.686Z,95408.72
2022-08-19T11:59:51.780Z,95397.19
2022-08-19T12:02:22.822Z,95395.03
2022-08-19T12:04:51.655Z,95399.56
2022-08-19T12:07:20.572Z,95388.63
2022-08-19T12:09:49.068Z,95378.09
2022-08-19T12:12:18.070Z,95390.31
2022-08-19T12:14:47.665Z,95396.59
2022-08-19T12:17:16.436Z,95391.91
2022-08-19T12:19:46.379Z,95396.28
2022-08-19T12:22:15.210Z,95393.84
2022-08-19T12:24:44.014Z,95392.59
2022-08-19T12:27:13.074Z,95400.38
2022-08-19T12:29:42.037Z,95384.28
2022-08-19T12:32:12.199Z,95377.31
2022-08-19T12:34:41.927Z,95366.72
2022-08-19T12:37:12.106Z,95362.91
2022-08-19T12:39:42.947Z,95312.88
2022-08-19T12:42:13.511Z,95297.13
2022-08-19T12:44:44.348Z,95353.09
2022-08-19T12:47:15.540Z,95283.88
2022-08-19T12:49:54.544Z,95302.22
2022-08-19T12:52:28.321Z,95364.00
2022-08-19T12:54:58.573Z,95362.25
2022-08-19T12:57:32.027Z,95376.63
2022-08-19T13:00:05.277Z,95372.72
2022-08-19T13:02:39.019Z,95327.47
2022-08-19T13:05:12.290Z,95378.63
2022-08-19T13:07:44.994Z,95375.97
2022-08-19T13:10:16.504Z,95360.28
2022-08-19T13:12:45.403Z,95391.41
2022-08-19T13:15:15.113Z,95396.19
2022-08-19T13:17:44.175Z,95380.72
2022-08-19T13:20:13.733Z,95388.09
2022-08-19T13:22:44.198Z,95351.31
2022-08-19T13:25:13.768Z,95384.88
2022-08-19T13:27:42.933Z,95362.00
2022-08-19T13:30:31.197Z,95385.69
2022-08-19T13:33:16.287Z,95392.56
2022-08-19T13:35:48.396Z,95395.78
2022-08-19T13:38:21.538Z,95365.44
2022-08-19T13:40:52.616Z,95385.50
2022-08-19T13:43:23.895Z,95384.81
2022-08-19T13:45:56.549Z,95388.41
2022-08-19T13:48:27.802Z,95398.25
2022-08-19T13:50:57.193Z,95387.44
2022-08-19T13:53:27.193Z,95405.00
2022-08-19T13:55:55.894Z,95407.63
2022-08-19T13:58:24.917Z,95400.34
2022-08-19T14:00:53.734Z,95404.03
2022-08-19T14:03:22.381Z,95402.00
2022-08-19T14:05:50.900Z,95417.19
2022-08-19T14:08:20.380Z,95407.72
2022-08-19T14:10:50.513Z,95385.16
2022-08-19T14:13:22.489Z,95403.72
2022-08-19T14:15:52.086Z,95407.50
2022-08-19T14:18:21.188Z,95416.06
2022-08-19T14:20:50.205Z,95414.13
2022-08-19T14:23:18.833Z,95416.66
2022-08-19T14:25:48.076Z,95414.25
2022-08-19T14:28:18.429Z,95398.97
2022-08-19T14:30:47.417Z,95399.31
2022-08-19T14:33:15.930Z,95401.59
2022-08-19T14:35:45.908Z,95403.88
2022-08-19T14:38:31.158Z,95404.56
2022-08-19T14:41:10.073Z,95405.03
2022-08-19T14:43:40.666Z,95355.31
2022-08-19T14:46:11.538Z,95397.50
2022-08-19T14:48:41.443Z,95388.03
2022-08-19T14:51:10.785Z,95391.91
2022-08-19T14:53:39.597Z,95352.78
2022-08-19T14:56:11.364Z,95384.94
2022-08-19T14:58:42.591Z,95381.06
2022-08-19T15:01:12.749Z,95382.22
2022-08-19T15:03:42.314Z,95381.06
2022-08-19T15:06:12.771Z,95379.47
2022-08-19T15:08:44.225Z,95384.25
2022-08-19T15:11:15.614Z,95367.72
2022-08-19T15:13:47.858Z,95365.19
2022-08-19T15:16:18.079Z,95364.13
2022-08-19T15:18:47.836Z,95342.06
2022-08-19T15:21:26.810Z,95364.94
2022-08-19T15:23:57.663Z,95364.59
2022-08-19T15:26:27.495Z,95361.94
2022-08-19T15:28:57.473Z,95357.38
2022-08-19T15:31:28.838Z,95356.34
2022-08-19T15:33:59.138Z,95338.13
2022-08-19T15:36:28.061Z,95365.88
2022-08-19T15:38:57.068Z,95273.84
2022-08-19T15:41:29.161Z,95372.63
2022-08-19T15:44:00.895Z,95366.00
2022-08-19T15:46:32.397Z,95337.84
2022-08-19T15:49:02.660Z,95364.06
2022-08-19T15:51:35.534Z,95357.47
2022-08-19T15:54:05.132Z,95364.06
2022-08-19T15:57:06.989Z,95364.16
2022-08-19T15:59:56.001Z,95366.53
2022-08-19T16:02:46.805Z,95369.75
2022-08-19T16:05:32.106Z,95363.56
2022-08-19T16:08:01.186Z,95371.09
2022-08-19T16:10:30.232Z,95373.13
2022-08-19T16:13:00.405Z,95363.75
2022-08-19T16:15:32.373Z,95386.38
2022-08-19T16:18:02.498Z,95384.09
2022-08-19T16:20:31.873Z,95383.19
2022-08-19T16:23:04.868Z,95383.88
2022-08-19T16:25:33.816Z,95365.19
2022-08-19T16:28:07.111Z,95363.34
2022-08-19T16:30:40.149Z,95373.63
2022-08-19T16:33:10.246Z,95373.88
2022-08-19T16:35:38.944Z,95360.63
2022-08-19T16:38:08.272Z,95372.00
2022-08-19T16:40:37.134Z,95367.44
2022-08-19T16:43:08.572Z,95358.16
2022-08-19T16:45:38.667Z,95361.94
2022-08-19T16:48:12.609Z,95366.34
2022-08-19T16:50:49.108Z,95377.88
2022-08-19T16:53:20.643Z,95345.41
2022-08-19T16:55:51.438Z,95263.19
2022-08-19T16:58:20.466Z,95396.19
2022-08-19T17:01:03.904Z,95379.53
2022-08-19T17:03:36.303Z,95383.97
2022-08-19T17:06:18.440Z,95390.59
2022-08-19T17:08:50.447Z,95369.03
2022-08-19T17:11:19.934Z,95385.91
2022-08-19T17:13:49.606Z,95387.53
2022-08-19T17:16:20.023Z,95382.75
2022-08-19T17:18:52.414Z,95377.94
2022-08-19T17:21:21.234Z,95363.75
2022-08-19T17:23:50.240Z,95353.28
2022-08-19T17:26:19.876Z,95369.94
2022-08-19T17:28:50.113Z,95366.75
2022-08-19T17:31:23.286Z,95376.09
2022-08-19T17:33:52.447Z,95347.53
2022-08-19T17:36:24.576Z,95347.00
2022-08-19T17:38:55.460Z,95371.56
2022-08-19T17:41:24.443Z,95365.66
2022-08-19T17:43:53.053Z,95362.44
2022-08-19T17:46:23.018Z,95359.97
2022-08-19T17:48:55.331Z,95369.25
2022-08-19T17:51:27.587Z,95372.22
2022-08-19T17:53:56.461Z,95357.66
2022-08-19T17:56:25.476Z,95368.84
2022-08-19T17:58:59.893Z,95369.88
2022-08-19T18:01:52.713Z,95364.63
2022-08-19T18:04:21.513Z,95368.75
2022-08-19T18:06:53.624Z,95372.19
2022-08-19T18:09:25.049Z,95371.28
2022-08-19T18:11:55.449Z,95375.19
2022-08-19T18:14:33.485Z,95352.34
2022-08-19T18:17:09.873Z,95339.91
2022-08-19T18:19:41.893Z,95310.63
2022-08-19T18:22:13.574Z,95374.00
2022-08-19T18:24:46.033Z,95309.19
2022-08-19T18:27:14.938Z,95376.31
2022-08-19T18:29:43.622Z,95385.31
2022-08-19T18:32:14.277Z,95384.88
2022-08-19T18:34:44.761Z,95387.13
2022-08-19T18:37:14.007Z,95378.16
2022-08-19T18:39:59.687Z,95386.81
2022-08-19T18:42:45.380Z,95394.47
2022-08-19T18:45:30.933Z,95390.47
2022-08-19T18:48:27.569Z,95395.84
2022-08-19T18:50:58.599Z,95395.38
2022-08-19T18:53:29.556Z,95398.81
2022-08-19T18:55:59.050Z,95407.34
2022-08-19T18:58:32.529Z,95412.81
2022-08-19T19:01:01.291Z,95412.38
2022-08-19T19:03:31.901Z,95417.16
2022-08-19T19:06:00.337Z,95402.31
2022-08-19T19:08:28.886Z,95433.56
2022-08-19T19:10:59.088Z,95441.34
2022-08-19T19:13:29.226Z,95444.41
2022-08-19T19:15:57.905Z,95439.59
2022-08-19T19:18:26.671Z,95398.16
2022-08-19T19:20:57.789Z,95445.44
2022-08-19T19:23:26.666Z,95441.09
2022-08-19T19:25:55.157Z,95418.69
2022-08-19T19:28:25.856Z,95439.34
2022-08-19T19:30:57.671Z,95435.34
2022-08-19T19:33:26.365Z,95437.16
2022-08-19T19:35:56.709Z,95440.56
2022-08-19T19:38:25.251Z,95446.03
2022-08-19T19:40:53.682Z,95450.72
2022-08-19T19:43:22.561Z,95455.38
2022-08-19T19:45:52.196Z,95441.25
2022-08-19T19:48:20.804Z,95432.13
2022-08-19T19:50:56.182Z,95314.09
2022-08-19T19:53:27.922Z,95436.19
2022-08-19T19:55:58.837Z,95444.63
2022-08-19T19:58:28.811Z,95247.66
2022-08-19T20:00:59.160Z,95447.59
2022-08-19T20:03:29.858Z,95452.38
2022-08-19T20:05:59.670Z,95452.38
2022-08-19T20:08:47.440Z,95450.50
2022-08-19T20:11:31.575Z,95464.00
2022-08-19T20:14:02.453Z,95470.13
2022-08-19T20:16:32.137Z,95471.25
2022-08-19T20:19:02.037Z,95481.38
2022-08-19T20:21:32.753Z,95482.19
2022-08-19T20:24:10.059Z,95492.31
2022-08-19T20:26:39.061Z,95484.00
2022-08-19T20:29:37.377Z,95482.41
2022-08-19T20:31:59.003Z,95451.63
2022-08-19T20:34:29.108Z,95483.75
2022-08-19T20:36:57.828Z,95490.34
2022-08-19T20:39:28.002Z,95489.88
2022-08-19T20:41:56.716Z,95492.16
2022-08-19T20:44:26.364Z,95494.41
2022-08-19T20:46:57.575Z,95495.56
2022-08-19T20:49:28.268Z,95500.22
2022-08-19T20:51:58.610Z,95492.03
2022-08-19T20:54:28.705Z,95493.97
2022-08-19T20:56:57.629Z,95479.28
2022-08-19T20:59:27.328Z,95479.34
2022-08-19T21:01:56.201Z,95491.44
2022-08-19T21:04:25.054Z,95477.78
2022-08-19T21:06:53.631Z,95487.75
2022-08-19T21:09:22.654Z,95488.44
2022-08-19T21:11:53.476Z,95486.81
2022-08-19T21:14:23.356Z,95493.44
2022-08-19T21:16:51.864Z,95496.16
2022-08-19T21:19:23.951Z,95504.56
2022-08-19T21:21:52.994Z,95511.44
2022-08-19T21:24:21.757Z,95515.34
2022-08-19T21:27:01.188Z,95512.91
2022-08-19T21:29:32.195Z,95511.34
2022-08-19T21:32:00.733Z,95506.53
2022-08-19T21:34:30.292Z,95507.66
2022-08-19T21:36:58.900Z,95513.59
2022-08-19T21:39:27.395Z,95463.78
2022-08-19T21:41:56.198Z,95506.53
2022-08-19T21:44:26.729Z,95501.75
2022-08-19T21:46:55.091Z,95499.97
2022-08-19T21:49:24.041Z,95497.91
2022-08-19T21:51:52.751Z,95485.44
2022-08-19T21:54:21.446Z,95473.81
2022-08-19T21:56:50.546Z,95491.84
2022-08-19T21:59:19.026Z,95491.03
2022-08-19T22:01:56.650Z,95486.72
2022-08-19T22:04:30.992Z,95483.06
2022-08-19T22:06:59.449Z,95488.16
2022-08-19T22:09:27.885Z,95483.38
2022-08-19T22:11:56.338Z,95477.38
2022-08-19T22:14:24.843Z,95491.09
2022-08-19T22:16:54.821Z,95488.38
2022-08-19T22:19:23.356Z,95421.97
2022-08-19T22:21:51.762Z,95482.91
2022-08-19T22:24:20.220Z,95375.44
2022-08-19T22:26:48.710Z,95485.19
2022-08-19T22:29:18.116Z,95490.66
2022-08-19T22:31:58.218Z,95480.59
2022-08-19T22:34:26.917Z,95495.66
2022-08-19T22:36:55.426Z,95492.91
2022-08-19T22:39:23.903Z,95495.31
2022-08-19T22:41:52.433Z,95472.25
2022-08-19T22:44:21.154Z,95486.00
2022-08-19T22:46:49.641Z,95487.09
2022-08-19T22:49:19.577Z,95493.69
2022-08-19T22:52:05.359Z,95486.97
2022-08-19T22:54:34.117Z,95490.34
2022-08-19T22:57:02.882Z,95494.22
2022-08-19T22:59:31.357Z,95407.13
2022-08-19T23:01:59.775Z,95494.91
2022-08-19T23:04:29.806Z,95489.75
2022-08-19T23:06:58.219Z,95494.41
2022-08-19T23:09:31.505Z,95493.94
2022-08-19T23:12:00.773Z,95411.81
2022-08-19T23:14:31.077Z,95490.75
2022-08-19T23:16:59.526Z,95492.22
2022-08-19T23:19:29.973Z,95495.25
2022-08-19T23:21:59.011Z,95488.53
2022-08-19T23:24:27.822Z,95488.84
2022-08-19T23:27:13.583Z,95488.84
2022-08-19T23:30:01.915Z,95489.19
2022-08-19T23:32:35.208Z,95494.97
2022-08-19T23:35:06.018Z,95494.97
2022-08-19T23:37:34.488Z,95487.94
2022-08-19T23:40:03.401Z,95491.78
2022-08-19T23:42:32.681Z,95480.38
2022-08-19T23:45:03.872Z,95475.59
2022-08-19T23:47:32.508Z,95478.97
2022-08-19T23:50:02.295Z,95481.25
2022-08-19T23:52:33.945Z,95485.09
2022-08-19T23:55:03.281Z,95481.25
2022-08-19T23:57:31.816Z,95483.97
